KREO/REO METAR and TAF weather

Enter ICAO airport designator
Station Type Date Time Source
KREO METAR 2022/06/30 13:52 UTC NOAA

KREO 301352Z AUTO 05007KT 16/00 A3010 RMK AO1 SLP153 T01610000


Station Type Date Time Source
KREO Decoded METAR 2022/06/30 13:52 UTC NOAA

ROME, OR, United States (KREO) 42-35N 117-52W 1235M
Jun 30, 2022 - 09:52 AM EDT / 2022.06.30 1352 UTC
Wind: from the NE (050 degrees) at 8 MPH (7 KT):0
Temperature: 61.0 F (16.1 C)
Dew Point: 32.0 F (0.0 C)
Relative Humidity: 33%
Pressure (altimeter): 30.1 in. Hg (1019 hPa)
ob: KREO 301352Z AUTO 05007KT 16/00 A3010 RMK AO1 SLP153 T01610000
cycle: 14

Station Type Date Time Source
KREO TAF UTC NOAA

Error!

Example: see airport list